หน้าหลัก
METAR-TAF:

METAR-TAF

ท่าอากาศยาน :

เตกูซิกัลปา, ฮอนดูรัส

ละติจูด: 14-03N, ลองจิจูด: 087-13W, ความสูง: 994 ม.

การสังเกตสภาพอากาศปัจจุบัน

รายงานได้ทำขึ้นเมื่อ 59 นาทีที่แล้ว ณ เวลา 19:00 UTC
ลม 11 นอตจากตะวันออกเฉียงเหนือ
อุณหภูมิ 31°C
ความชื้น 36%
ความกดอากาศ 1017 hPa
ทัศนวิสัย 10 กม. หรือมากกว่า
มีเมฆน้อยที่ความสูง 4000 ฟุต

METAR: MHTG 151900Z 05011KT 9999 FEW040 31/14 Q1017 A3003 NOSIG

เวลา: 13:59 (19:59 UTC)

การพยากรณ์

รายงานได้ทำขึ้นเมื่อ 3 ชั่วโมงและ 59 นาทีที่แล้ว ณ เวลา 16:00 UTC
การพยากรณ์มีผลตั้งแต่วันที่ 15 ณ เวลา 18 UTC จนถึงวันที่ 16 ณ เวลา 18 UTC
ลม 12 นอตจากเหนือ/ตะวันออกเฉียงเหนือ
ทัศนวิสัย 10 กม. หรือมากกว่า
มีเมฆกระจายเป็นบางส่วนที่ความสูง 3400 ฟุต
กำลังกลายเป็น
ตั้งแต่วันที่ 15 ณ เวลา 23 UTC จนถึงวันที่ 16 ณ เวลา 01 UTC
ลม 4 นอตจากทิศทางซึ่งแปรผันได้
มีเมฆเป็นส่วนมากเว้นเป็นระยะที่ความสูง 3200 ฟุต
กำลังกลายเป็น
ตั้งแต่วันที่ 16 ณ เวลา 09 UTC จนถึงวันที่ 16 ณ เวลา 11 UTC
ทัศนวิสัย: 8000 ม.

TAF: MHTG 151600Z 1518/1618 03012KT 9999 SCT034 TX32/1520Z TN20/1612Z BECMG 1523/1601 VRB04KT BKN032 BECMG 1609/1611 8000

สังเกตการณ์สภาพอากาศและพยากรณ์อากาศของสนามบินมากกว่า 4000 แห่ง (รายงาน METAR และ TAF).

สถานีที่ดูได้จะแสดงไว้ด้วยจุดสีเหลืองและสีแดงบนแผนที่.

เลื่อนเมาส์ไปเหนือจุดเพื่อดูชื่อสถานี.

แล้วคลิกเพื่อดูสังเกตการณ์และการพยากรณ์สภาพอากาศ.

ในการเปลี่ยนแผนที่: คลิกที่ปุ่มสีเขียวที่มีกากบาทสีดำเพื่อซูมเข้า; ที่ปุ่มสีเขียวที่มีขีดเพื่อซูมออก; หรือที่ลูกศรสีเขียวเพื่อไปยังแผนที่ที่อยู่ติดกัน.


METAR-TAF: